createdAt,value
2022-11-09T00:01:29.360Z,100192.19
2022-11-09T00:08:37.676Z,100192.34
2022-11-09T00:13:41.572Z,100195.06
2022-11-09T00:18:47.508Z,100186.56
2022-11-09T00:23:49.694Z,100179.31
2022-11-09T00:28:51.361Z,100175.06
2022-11-09T00:33:55.647Z,100171.28
2022-11-09T00:39:00.367Z,100173.16
2022-11-09T00:44:02.052Z,100163.41
2022-11-09T00:49:04.033Z,100155.75
2022-11-09T00:54:09.236Z,100169.34
2022-11-09T00:59:11.645Z,100164.47
2022-11-09T01:04:14.065Z,100154.50
2022-11-09T01:09:15.905Z,100159.34
2022-11-09T01:14:17.881Z,100167.44
2022-11-09T01:19:19.548Z,100160.66
2022-11-09T01:24:21.290Z,100174.44
2022-11-09T01:29:22.951Z,100171.66
2022-11-09T01:34:25.022Z,100184.00
2022-11-09T01:39:27.072Z,100185.06
2022-11-09T01:44:30.349Z,100177.00
2022-11-09T01:49:34.860Z,100192.03
2022-11-09T01:54:44.206Z,100193.72
2022-11-09T01:59:52.561Z,100189.69
2022-11-09T02:05:01.996Z,100193.72
2022-11-09T02:10:22.665Z,100190.34
2022-11-09T02:15:25.814Z,100205.38
2022-11-09T02:20:28.555Z,100200.28
2022-11-09T02:25:30.316Z,100205.56
2022-11-09T02:30:34.925Z,100200.72
2022-11-09T02:35:36.975Z,100206.88
2022-11-09T02:40:42.893Z,100184.63
2022-11-09T02:45:44.664Z,100169.38
2022-11-09T02:50:46.430Z,100146.50
2022-11-09T02:55:48.159Z,100159.19
2022-11-09T03:00:50.067Z,100166.16
2022-11-09T03:05:51.805Z,100167.47
2022-11-09T03:10:54.157Z,100181.44
2022-11-09T03:15:56.113Z,100197.53
2022-11-09T03:21:05.078Z,100204.34
2022-11-09T03:26:07.153Z,100202.78
2022-11-09T03:31:09.939Z,100211.88
2022-11-09T03:36:12.269Z,100224.16
2022-11-09T03:41:14.030Z,100220.75
2022-11-09T03:46:15.797Z,100240.22
2022-11-09T03:51:17.399Z,100233.50
2022-11-09T03:56:19.057Z,100232.84
2022-11-09T04:01:20.828Z,100247.28
2022-11-09T04:06:22.474Z,100264.84
2022-11-09T04:11:24.323Z,100260.25
2022-11-09T04:16:27.197Z,100261.69
2022-11-09T04:21:28.873Z,100265.63
2022-11-09T04:26:30.441Z,100266.81
2022-11-09T04:31:34.415Z,100253.97
2022-11-09T04:36:36.106Z,100271.28
2022-11-09T04:41:37.866Z,100284.16
2022-11-09T04:46:39.461Z,100283.03
2022-11-09T04:51:41.194Z,100288.53
2022-11-09T04:56:42.821Z,100292.97
2022-11-09T05:01:44.442Z,100285.19
2022-11-09T05:06:46.340Z,100280.09
2022-11-09T05:11:48.031Z,100285.38
2022-11-09T05:16:49.625Z,100276.69
2022-11-09T05:21:51.275Z,100278.13
2022-11-09T05:26:53.767Z,100270.50
2022-11-09T05:31:55.454Z,100271.72
2022-11-09T05:37:02.278Z,100272.81
2022-11-09T05:42:06.792Z,100290.16
2022-11-09T05:47:08.422Z,100294.53
2022-11-09T05:52:10.116Z,100293.97
2022-11-09T05:57:11.854Z,100285.72
2022-11-09T06:02:16.254Z,100297.38
2022-11-09T06:07:18.042Z,100301.56
2022-11-09T06:12:19.780Z,100301.75
2022-11-09T06:17:21.416Z,100304.03
2022-11-09T06:22:23.345Z,100303.19
2022-11-09T06:27:24.963Z,100303.66
2022-11-09T06:32:26.660Z,100316.09
2022-11-09T06:37:29.474Z,100322.63
2022-11-09T06:42:31.156Z,100325.78
2022-11-09T06:47:35.551Z,100320.06
2022-11-09T06:52:37.234Z,100325.56
2022-11-09T06:57:38.985Z,100332.31
2022-11-09T07:02:42.547Z,100336.59
2022-11-09T07:07:44.531Z,100336.13
2022-11-09T07:12:46.411Z,100333.00
2022-11-09T07:17:49.081Z,100338.78
2022-11-09T07:22:50.975Z,100345.31
2022-11-09T07:27:53.052Z,100345.97
2022-11-09T07:33:12.576Z,100347.88
2022-11-09T07:38:16.084Z,100356.31
2022-11-09T07:43:18.694Z,100350.63
2022-11-09T07:48:25.998Z,100363.78
2022-11-09T07:53:27.661Z,100363.88
2022-11-09T07:58:30.345Z,100363.69
2022-11-09T08:03:32.011Z,100369.00
2022-11-09T08:08:33.883Z,100373.44
2022-11-09T08:13:35.615Z,100376.28
2022-11-09T08:18:37.312Z,100367.06
2022-11-09T08:23:39.163Z,100375.38
2022-11-09T08:28:40.897Z,100389.22
2022-11-09T08:33:42.557Z,100382.88
2022-11-09T08:38:48.592Z,100382.94
2022-11-09T08:43:50.364Z,100388.53
2022-11-09T08:48:51.967Z,100380.91
2022-11-09T08:53:53.611Z,100394.94
2022-11-09T08:58:55.241Z,100387.78
2022-11-09T09:03:56.851Z,100387.00
2022-11-09T09:08:58.564Z,100390.41
2022-11-09T09:14:00.247Z,100383.91
2022-11-09T09:19:01.907Z,100393.13
2022-11-09T09:24:03.908Z,100394.09
2022-11-09T09:29:05.630Z,100411.13
2022-11-09T09:34:07.828Z,100421.13
2022-11-09T09:39:09.489Z,100417.25
2022-11-09T09:44:39.523Z,100411.75
2022-11-09T09:49:48.581Z,100424.81
2022-11-09T09:55:00.084Z,100435.38
2022-11-09T10:00:06.157Z,100438.84
2022-11-09T10:05:16.027Z,100446.34
2022-11-09T10:10:36.441Z,100445.06
2022-11-09T10:15:48.581Z,100447.44
2022-11-09T10:20:59.110Z,100445.06
2022-11-09T10:26:17.972Z,100444.66
2022-11-09T10:31:22.815Z,100451.41
2022-11-09T10:36:42.333Z,100456.59
2022-11-09T10:41:46.889Z,100455.75
2022-11-09T10:47:16.867Z,100445.56
2022-11-09T10:52:45.980Z,100441.78
2022-11-09T10:58:46.232Z,100439.31
2022-11-09T11:04:26.950Z,100451.09
2022-11-09T11:10:09.073Z,100447.56
2022-11-09T11:15:41.278Z,100459.06
2022-11-09T11:21:17.471Z,100464.41
2022-11-09T11:26:57.251Z,100459.66
2022-11-09T11:32:20.073Z,100458.81
2022-11-09T11:37:50.256Z,100464.19
2022-11-09T11:43:33.008Z,100462.16
2022-11-09T11:49:27.347Z,100460.59
2022-11-09T11:54:53.762Z,100463.81
2022-11-09T12:00:16.659Z,100458.78
2022-11-09T12:05:48.809Z,100454.22
2022-11-09T12:11:22.432Z,100466.34
2022-11-09T12:16:59.865Z,100466.88
2022-11-09T12:22:19.933Z,100472.28
2022-11-09T12:28:02.613Z,100477.44
2022-11-09T12:33:37.354Z,100483.09
2022-11-09T12:39:36.499Z,100494.31
2022-11-09T12:45:15.291Z,100493.50
2022-11-09T12:50:37.147Z,100503.63
2022-11-09T12:56:10.684Z,100499.25
2022-11-09T13:01:33.699Z,100509.81
2022-11-09T13:07:31.398Z,100508.03
2022-11-09T13:13:10.703Z,100499.97
2022-11-09T13:18:35.289Z,100515.31
2022-11-09T13:24:05.857Z,100523.81
2022-11-09T13:29:50.007Z,100528.44
2022-11-09T13:35:42.301Z,100527.97
2022-11-09T13:41:04.618Z,100536.69
2022-11-09T13:46:29.533Z,100576.78
2022-11-09T13:51:49.841Z,100579.41
2022-11-09T13:57:11.283Z,100588.72
2022-11-09T14:02:31.742Z,100589.06
2022-11-09T14:07:54.318Z,100582.59
2022-11-09T14:13:41.005Z,100597.63
2022-11-09T14:19:30.916Z,100596.56
2022-11-09T14:24:51.567Z,100603.22
2022-11-09T14:30:21.586Z,100607.47
2022-11-09T14:35:42.137Z,100616.34
2022-11-09T14:41:02.772Z,100634.66
2022-11-09T14:46:30.885Z,100640.66
2022-11-09T14:51:51.112Z,100651.66
2022-11-09T14:57:15.386Z,100661.25
2022-11-09T15:02:37.393Z,100664.97
2022-11-09T15:07:58.688Z,100681.63
2022-11-09T15:13:27.970Z,100687.44
2022-11-09T15:18:48.410Z,100682.94
2022-11-09T15:24:08.453Z,100706.72
2022-11-09T15:29:40.331Z,100714.41
2022-11-09T15:35:15.339Z,100715.25
2022-11-09T15:40:36.367Z,100724.78
2022-11-09T15:46:06.717Z,100735.31
2022-11-09T15:51:27.325Z,100744.44
2022-11-09T15:57:07.036Z,100769.72
2022-11-09T16:02:42.046Z,100772.28
2022-11-09T16:08:02.737Z,100782.47
2022-11-09T16:13:22.819Z,100787.78
2022-11-09T16:18:43.640Z,100793.50
2022-11-09T16:24:04.019Z,100806.63
2022-11-09T16:29:27.814Z,100810.59
2022-11-09T16:35:08.460Z,100815.06
2022-11-09T16:40:31.794Z,100833.78
2022-11-09T16:45:52.128Z,100819.44
2022-11-09T16:51:12.479Z,100838.53
2022-11-09T16:56:34.652Z,100845.31
2022-11-09T17:01:58.051Z,100854.41
2022-11-09T17:07:19.021Z,100867.63
2022-11-09T17:12:39.011Z,100875.19
2022-11-09T17:17:59.394Z,100874.47
2022-11-09T17:23:19.794Z,100883.63
2022-11-09T17:28:43.197Z,100889.16
2022-11-09T17:34:03.622Z,100905.28
2022-11-09T17:39:26.027Z,100923.94
2022-11-09T17:44:52.428Z,100931.00
2022-11-09T17:50:34.665Z,100936.69
2022-11-09T18:02:11.691Z,100949.63
2022-11-09T18:07:33.166Z,100954.06
2022-11-09T18:12:54.594Z,100964.75
2022-11-09T18:18:17.748Z,100987.34
2022-11-09T18:23:38.444Z,100984.22
2022-11-09T18:29:09.906Z,100984.41
2022-11-09T18:34:31.200Z,100992.00
2022-11-09T18:39:57.934Z,101007.31
2022-11-09T18:45:21.981Z,101016.25
2022-11-09T18:50:42.296Z,101019.00
2022-11-09T18:56:07.212Z,101020.19
2022-11-09T19:01:30.452Z,101052.09
2022-11-09T19:06:50.892Z,101055.75
2022-11-09T19:12:11.149Z,101060.19
2022-11-09T19:17:31.404Z,101065.72
2022-11-09T19:22:51.715Z,101078.25
2022-11-09T19:28:12.150Z,101087.22
2022-11-09T19:33:32.272Z,101097.22
2022-11-09T19:38:52.492Z,101102.22
2022-11-09T19:44:14.516Z,101108.13
2022-11-09T19:49:34.814Z,101109.34
2022-11-09T19:54:54.969Z,101114.84
2022-11-09T20:00:16.066Z,101128.47
2022-11-09T20:05:36.489Z,101128.84
2022-11-09T20:10:57.001Z,101151.56
2022-11-09T20:16:17.706Z,101158.97
2022-11-09T20:21:40.209Z,101167.06
2022-11-09T20:27:00.269Z,101172.56
2022-11-09T20:32:21.700Z,101170.16
2022-11-09T20:37:42.224Z,101187.91
2022-11-09T20:43:02.567Z,101191.72
2022-11-09T20:48:46.976Z,101208.75
2022-11-09T20:54:07.317Z,101213.09
2022-11-09T20:59:27.503Z,101212.59
2022-11-09T21:04:47.598Z,101213.59
2022-11-09T21:10:07.978Z,101213.59
2022-11-09T21:15:29.492Z,101219.50
2022-11-09T21:21:04.733Z,101220.53
2022-11-09T21:26:47.876Z,101231.22
2022-11-09T21:32:10.348Z,101243.25
2022-11-09T21:37:30.561Z,101246.56
2022-11-09T21:42:50.946Z,101255.16
2022-11-09T21:48:11.245Z,101265.53
2022-11-09T21:53:32.692Z,101276.34
2022-11-09T21:58:53.308Z,101283.06
2022-11-09T22:04:19.327Z,101292.88
2022-11-09T22:10:08.149Z,101293.94
2022-11-09T22:15:39.407Z,101290.50
2022-11-09T22:20:59.717Z,101293.59
2022-11-09T22:26:20.639Z,101303.78
2022-11-09T22:31:41.098Z,101297.72
2022-11-09T22:37:01.563Z,101295.47
2022-11-09T22:42:21.828Z,101308.91
2022-11-09T22:47:41.810Z,101321.66
2022-11-09T22:53:03.954Z,101320.94
2022-11-09T22:58:27.693Z,101333.38
2022-11-09T23:03:48.115Z,101349.91
2022-11-09T23:09:08.200Z,101352.34
2022-11-09T23:14:47.157Z,101368.19
2022-11-09T23:20:08.444Z,101373.72
2022-11-09T23:25:47.148Z,101384.91
2022-11-09T23:31:24.318Z,101382.16
2022-11-09T23:36:44.501Z,101390.78
2022-11-09T23:42:05.726Z,101372.84
2022-11-09T23:47:25.983Z,101387.31
2022-11-09T23:52:46.036Z,101395.09
2022-11-09T23:58:07.305Z,101402.16
